sensor_id;sensor_type;location;lat;lon;timestamp;pressure;altitude;pressure_sealevel;temperature;humidity
51603;BME280;37954;51.980;5.850;2023-04-30T00:00:39;102014.19;;;8.93;74.97
51603;BME280;37954;51.980;5.850;2023-04-30T00:04:50;102027.97;;;9.05;75.23
51603;BME280;37954;51.980;5.850;2023-04-30T00:09:02;102041.38;;;9.05;75.47
51603;BME280;37954;51.980;5.850;2023-04-30T00:13:13;102022.09;;;8.87;75.85
51603;BME280;37954;51.980;5.850;2023-04-30T00:17:25;102043.69;;;8.93;76.29
51603;BME280;37954;51.980;5.850;2023-04-30T00:21:37;102005.47;;;8.77;76.55
51603;BME280;37954;51.980;5.850;2023-04-30T00:25:48;102001.00;;;8.69;76.50
51603;BME280;37954;51.980;5.850;2023-04-30T00:30:00;101995.53;;;8.62;76.32
51603;BME280;37954;51.980;5.850;2023-04-30T00:34:12;102020.88;;;8.75;76.57
51603;BME280;37954;51.980;5.850;2023-04-30T00:38:23;102017.38;;;8.74;77.02
51603;BME280;37954;51.980;5.850;2023-04-30T00:42:35;102022.56;;;8.76;77.13
51603;BME280;37954;51.980;5.850;2023-04-30T00:46:47;102008.28;;;8.60;76.80
51603;BME280;37954;51.980;5.850;2023-04-30T00:50:58;101995.28;;;8.49;76.91
51603;BME280;37954;51.980;5.850;2023-04-30T00:55:11;102035.63;;;8.70;76.92
51603;BME280;37954;51.980;5.850;2023-04-30T00:59:23;102052.72;;;8.69;76.87
51603;BME280;37954;51.980;5.850;2023-04-30T01:03:35;102037.44;;;8.55;76.50
51603;BME280;37954;51.980;5.850;2023-04-30T01:07:47;102023.44;;;8.45;76.55
51603;BME280;37954;51.980;5.850;2023-04-30T01:12:12;102048.66;;;8.51;76.82
51603;BME280;37954;51.980;5.850;2023-04-30T01:16:32;102022.66;;;8.36;77.02
51603;BME280;37954;51.980;5.850;2023-04-30T01:20:53;102045.53;;;8.47;77.44
51603;BME280;37954;51.980;5.850;2023-04-30T01:29:42;102030.06;;;8.26;77.71
51603;BME280;37954;51.980;5.850;2023-04-30T01:33:54;102013.19;;;8.18;77.60
51603;BME280;37954;51.980;5.850;2023-04-30T01:38:49;102046.75;;;8.36;77.36
51603;BME280;37954;51.980;5.850;2023-04-30T01:52:45;102030.81;;;8.12;77.98
51603;BME280;37954;51.980;5.850;2023-04-30T01:57:13;102039.47;;;8.14;77.80
51603;BME280;37954;51.980;5.850;2023-04-30T02:01:28;102059.72;;;8.17;77.49
51603;BME280;37954;51.980;5.850;2023-04-30T02:05:41;102060.44;;;8.02;77.91
51603;BME280;37954;51.980;5.850;2023-04-30T02:09:52;102040.94;;;7.94;78.04
51603;BME280;37954;51.980;5.850;2023-04-30T02:14:05;102054.78;;;7.97;79.09
51603;BME280;37954;51.980;5.850;2023-04-30T02:18:17;102032.94;;;7.86;79.56
51603;BME280;37954;51.980;5.850;2023-04-30T02:22:29;102062.63;;;7.99;79.39
51603;BME280;37954;51.980;5.850;2023-04-30T02:26:41;102067.31;;;7.97;80.12
51603;BME280;37954;51.980;5.850;2023-04-30T02:30:53;102056.50;;;7.90;80.10
51603;BME280;37954;51.980;5.850;2023-04-30T02:35:05;102032.81;;;7.71;80.96
51603;BME280;37954;51.980;5.850;2023-04-30T02:39:17;102060.34;;;7.88;80.80
51603;BME280;37954;51.980;5.850;2023-04-30T02:43:29;102063.03;;;7.88;81.13
51603;BME280;37954;51.980;5.850;2023-04-30T02:47:40;102044.97;;;7.82;81.06
51603;BME280;37954;51.980;5.850;2023-04-30T02:51:52;102051.00;;;7.84;80.72
51603;BME280;37954;51.980;5.850;2023-04-30T02:56:04;102050.31;;;7.82;80.42
51603;BME280;37954;51.980;5.850;2023-04-30T03:00:17;102048.84;;;7.79;80.62
51603;BME280;37954;51.980;5.850;2023-04-30T03:04:29;102039.00;;;7.72;80.55
51603;BME280;37954;51.980;5.850;2023-04-30T03:08:41;102036.00;;;7.75;80.54
51603;BME280;37954;51.980;5.850;2023-04-30T03:12:52;102017.16;;;7.60;80.65
51603;BME280;37954;51.980;5.850;2023-04-30T03:17:04;102029.16;;;7.64;81.01
51603;BME280;37954;51.980;5.850;2023-04-30T03:21:16;102026.31;;;7.65;81.08
51603;BME280;37954;51.980;5.850;2023-04-30T03:25:28;102039.69;;;7.65;81.50
51603;BME280;37954;51.980;5.850;2023-04-30T03:29:40;102030.53;;;7.60;81.34
51603;BME280;37954;51.980;5.850;2023-04-30T03:33:51;102029.69;;;7.59;81.48
51603;BME280;37954;51.980;5.850;2023-04-30T03:38:03;102034.88;;;7.61;81.08
51603;BME280;37954;51.980;5.850;2023-04-30T03:42:15;102028.03;;;7.58;81.50
51603;BME280;37954;51.980;5.850;2023-04-30T03:46:27;102034.22;;;7.59;81.48
51603;BME280;37954;51.980;5.850;2023-04-30T03:50:39;102028.19;;;7.57;81.35
51603;BME280;37954;51.980;5.850;2023-04-30T03:54:50;101997.84;;;7.33;81.35
51603;BME280;37954;51.980;5.850;2023-04-30T03:59:04;102029.03;;;7.49;81.39
51603;BME280;37954;51.980;5.850;2023-04-30T04:03:16;102016.72;;;7.40;81.25
51603;BME280;37954;51.980;5.850;2023-04-30T04:07:28;102035.06;;;7.51;81.32
51603;BME280;37954;51.980;5.850;2023-04-30T04:11:40;102033.72;;;7.47;81.27
51603;BME280;37954;51.980;5.850;2023-04-30T04:15:52;102033.72;;;7.47;81.80
51603;BME280;37954;51.980;5.850;2023-04-30T04:20:05;102011.69;;;7.37;82.06
51603;BME280;37954;51.980;5.850;2023-04-30T04:24:18;102039.56;;;7.51;82.89
51603;BME280;37954;51.980;5.850;2023-04-30T04:28:30;102042.72;;;7.54;82.55
51603;BME280;37954;51.980;5.850;2023-04-30T04:32:42;102050.72;;;7.62;82.87
51603;BME280;37954;51.980;5.850;2023-04-30T04:36:58;102033.88;;;7.54;82.57
51603;BME280;37954;51.980;5.850;2023-04-30T04:41:10;102037.00;;;7.65;82.51
51603;BME280;37954;51.980;5.850;2023-04-30T04:45:22;102041.00;;;7.69;82.77
51603;BME280;37954;51.980;5.850;2023-04-30T04:49:34;102051.69;;;7.78;82.50
51603;BME280;37954;51.980;5.850;2023-04-30T04:53:46;102048.81;;;7.87;82.40
51603;BME280;37954;51.980;5.850;2023-04-30T04:57:58;102038.78;;;7.89;82.61
51603;BME280;37954;51.980;5.850;2023-04-30T05:02:09;102051.47;;;7.95;82.13
51603;BME280;37954;51.980;5.850;2023-04-30T05:06:21;102057.41;;;8.14;82.04
51603;BME280;37954;51.980;5.850;2023-04-30T05:10:33;102040.38;;;9.06;82.71
51603;BME280;37954;51.980;5.850;2023-04-30T05:14:45;102031.63;;;10.72;81.40
51603;BME280;37954;51.980;5.850;2023-04-30T05:18:58;102061.06;;;12.40;76.87
51603;BME280;37954;51.980;5.850;2023-04-30T05:23:09;102063.00;;;13.78;73.74
51603;BME280;37954;51.980;5.850;2023-04-30T05:27:21;102065.66;;;14.80;69.10
51603;BME280;37954;51.980;5.850;2023-04-30T05:31:33;102036.38;;;15.45;66.63
51603;BME280;37954;51.980;5.850;2023-04-30T05:35:45;102043.28;;;16.02;63.06
51603;BME280;37954;51.980;5.850;2023-04-30T05:39:57;102053.56;;;16.60;60.18
51603;BME280;37954;51.980;5.850;2023-04-30T05:44:08;102053.91;;;17.17;57.79
51603;BME280;37954;51.980;5.850;2023-04-30T05:48:20;102057.81;;;17.91;55.93
51603;BME280;37954;51.980;5.850;2023-04-30T05:52:32;102058.47;;;18.38;54.64
51603;BME280;37954;51.980;5.850;2023-04-30T05:56:44;102057.00;;;18.59;52.33
51603;BME280;37954;51.980;5.850;2023-04-30T06:00:55;102045.34;;;18.92;51.14
51603;BME280;37954;51.980;5.850;2023-04-30T06:05:07;102053.19;;;19.39;50.70
51603;BME280;37954;51.980;5.850;2023-04-30T06:09:19;102065.91;;;19.89;48.20
51603;BME280;37954;51.980;5.850;2023-04-30T06:13:31;102066.03;;;20.21;47.09
51603;BME280;37954;51.980;5.850;2023-04-30T06:17:43;102070.19;;;20.28;45.08
51603;BME280;37954;51.980;5.850;2023-04-30T06:21:55;102064.63;;;20.40;45.31
51603;BME280;37954;51.980;5.850;2023-04-30T06:26:07;102071.78;;;20.46;44.57
51603;BME280;37954;51.980;5.850;2023-04-30T06:30:18;102098.97;;;21.16;43.39
51603;BME280;37954;51.980;5.850;2023-04-30T06:34:30;102085.69;;;21.30;42.78
51603;BME280;37954;51.980;5.850;2023-04-30T06:38:42;102068.41;;;21.19;42.21
51603;BME280;37954;51.980;5.850;2023-04-30T06:42:54;102068.88;;;21.48;41.26
51603;BME280;37954;51.980;5.850;2023-04-30T06:47:06;102092.31;;;21.76;41.02
51603;BME280;37954;51.980;5.850;2023-04-30T06:51:18;102083.38;;;21.96;40.26
51603;BME280;37954;51.980;5.850;2023-04-30T06:55:55;102094.28;;;22.48;39.79
51603;BME280;37954;51.980;5.850;2023-04-30T07:00:07;102099.06;;;22.99;39.47
51603;BME280;37954;51.980;5.850;2023-04-30T07:04:21;102092.75;;;23.29;38.15
51603;BME280;37954;51.980;5.850;2023-04-30T07:08:34;102087.81;;;23.25;37.88
51603;BME280;37954;51.980;5.850;2023-04-30T07:12:47;102091.25;;;23.92;37.18
51603;BME280;37954;51.980;5.850;2023-04-30T07:17:04;102098.75;;;24.46;36.94
51603;BME280;37954;51.980;5.850;2023-04-30T07:21:16;102096.78;;;24.56;35.32
51603;BME280;37954;51.980;5.850;2023-04-30T07:25:28;102097.72;;;24.32;35.09
51603;BME280;37954;51.980;5.850;2023-04-30T07:29:39;102105.44;;;24.24;34.78
51603;BME280;37954;51.980;5.850;2023-04-30T07:33:51;102098.56;;;24.27;34.88
51603;BME280;37954;51.980;5.850;2023-04-30T07:38:04;102097.69;;;24.37;34.76
51603;BME280;37954;51.980;5.850;2023-04-30T07:42:16;102105.00;;;24.56;34.73
51603;BME280;37954;51.980;5.850;2023-04-30T07:46:28;102108.88;;;24.94;34.57
51603;BME280;37954;51.980;5.850;2023-04-30T07:50:39;102096.88;;;25.19;34.09
51603;BME280;37954;51.980;5.850;2023-04-30T07:54:51;102112.28;;;25.49;33.76
51603;BME280;37954;51.980;5.850;2023-04-30T07:59:03;102098.50;;;25.49;32.74
51603;BME280;37954;51.980;5.850;2023-04-30T08:03:15;102107.00;;;25.82;32.95
51603;BME280;37954;51.980;5.850;2023-04-30T08:07:26;102108.00;;;25.91;32.21
51603;BME280;37954;51.980;5.850;2023-04-30T08:11:38;102114.09;;;25.88;32.03
51603;BME280;37954;51.980;5.850;2023-04-30T08:15:50;102104.13;;;26.40;31.79
51603;BME280;37954;51.980;5.850;2023-04-30T08:20:02;102111.66;;;26.72;31.60
51603;BME280;37954;51.980;5.850;2023-04-30T08:24:14;102106.72;;;26.87;30.62
51603;BME280;37954;51.980;5.850;2023-04-30T08:28:26;102106.97;;;26.72;30.89
51603;BME280;37954;51.980;5.850;2023-04-30T08:32:38;102094.75;;;26.59;30.27
51603;BME280;37954;51.980;5.850;2023-04-30T08:36:49;102103.44;;;27.04;30.44
51603;BME280;37954;51.980;5.850;2023-04-30T08:41:11;102089.34;;;26.87;29.78
51603;BME280;37954;51.980;5.850;2023-04-30T08:45:23;102094.91;;;27.19;30.10
51603;BME280;37954;51.980;5.850;2023-04-30T08:49:35;102099.78;;;26.90;29.81
51603;BME280;37954;51.980;5.850;2023-04-30T08:53:48;102098.59;;;26.40;30.57
51603;BME280;37954;51.980;5.850;2023-04-30T08:58:09;102089.69;;;26.48;30.31
51603;BME280;37954;51.980;5.850;2023-04-30T09:02:33;102107.66;;;26.64;30.33
51603;BME280;37954;51.980;5.850;2023-04-30T09:07:51;102104.13;;;26.40;30.09
51603;BME280;37954;51.980;5.850;2023-04-30T09:12:35;102096.31;;;26.23;30.31
51603;BME280;37954;51.980;5.850;2023-04-30T09:17:23;102086.84;;;26.53;30.14
51603;BME280;37954;51.980;5.850;2023-04-30T09:21:36;102099.22;;;27.25;29.63
51603;BME280;37954;51.980;5.850;2023-04-30T09:31:50;102064.81;;;26.85;29.46
51603;BME280;37954;51.980;5.850;2023-04-30T09:36:53;102081.41;;;27.50;29.02
51603;BME280;37954;51.980;5.850;2023-04-30T09:41:32;102069.59;;;27.31;28.71
51603;BME280;37954;51.980;5.850;2023-04-30T09:45:45;102082.41;;;27.08;29.10
51603;BME280;37954;51.980;5.850;2023-04-30T09:50:07;102071.00;;;27.15;28.96
51603;BME280;37954;51.980;5.850;2023-04-30T09:54:50;102070.75;;;27.44;28.78
51603;BME280;37954;51.980;5.850;2023-04-30T09:59:20;102071.50;;;27.77;28.63
51603;BME280;37954;51.980;5.850;2023-04-30T10:03:34;102071.50;;;27.77;28.89
51603;BME280;37954;51.980;5.850;2023-04-30T10:07:46;102036.13;;;27.79;27.41
51603;BME280;37954;51.980;5.850;2023-04-30T10:11:58;102050.13;;;27.96;27.96
51603;BME280;37954;51.980;5.850;2023-04-30T10:20:58;102031.38;;;27.93;27.70
51603;BME280;37954;51.980;5.850;2023-04-30T10:25:12;102043.25;;;28.21;27.27
51603;BME280;37954;51.980;5.850;2023-04-30T10:29:24;102031.81;;;28.00;26.98
51603;BME280;37954;51.980;5.850;2023-04-30T10:33:52;102028.94;;;28.05;27.47
51603;BME280;37954;51.980;5.850;2023-04-30T10:38:21;102028.72;;;28.01;27.38
51603;BME280;37954;51.980;5.850;2023-04-30T10:42:34;102036.72;;;27.89;27.57
51603;BME280;37954;51.980;5.850;2023-04-30T10:47:18;102034.97;;;27.52;28.21
51603;BME280;37954;51.980;5.850;2023-04-30T10:51:53;102031.41;;;27.52;27.96
51603;BME280;37954;51.980;5.850;2023-04-30T10:56:05;101996.94;;;27.49;28.42
51603;BME280;37954;51.980;5.850;2023-04-30T11:00:24;102006.44;;;27.43;28.16
51603;BME280;37954;51.980;5.850;2023-04-30T11:09:17;101998.38;;;26.68;29.28
51603;BME280;37954;51.980;5.850;2023-04-30T11:13:59;101986.13;;;26.42;29.01
51603;BME280;37954;51.980;5.850;2023-04-30T11:18:12;101997.91;;;26.47;29.36
51603;BME280;37954;51.980;5.850;2023-04-30T11:22:26;101983.28;;;26.28;29.52
51603;BME280;37954;51.980;5.850;2023-04-30T11:27:02;101994.59;;;26.64;29.67
51603;BME280;37954;51.980;5.850;2023-04-30T11:31:16;101984.84;;;26.53;29.60
51603;BME280;37954;51.980;5.850;2023-04-30T11:35:28;101967.66;;;26.23;30.34
51603;BME280;37954;51.980;5.850;2023-04-30T11:39:41;101939.75;;;25.92;30.55
51603;BME280;37954;51.980;5.850;2023-04-30T11:43:53;101944.50;;;26.06;30.46
51603;BME280;37954;51.980;5.850;2023-04-30T11:48:04;101964.31;;;26.08;30.73
51603;BME280;37954;51.980;5.850;2023-04-30T11:52:20;101953.56;;;26.06;30.85
51603;BME280;37954;51.980;5.850;2023-04-30T11:56:31;101928.00;;;25.63;30.44
51603;BME280;37954;51.980;5.850;2023-04-30T12:00:44;101920.13;;;25.32;31.48
51603;BME280;37954;51.980;5.850;2023-04-30T12:04:55;101929.66;;;25.40;31.96
51603;BME280;37954;51.980;5.850;2023-04-30T12:09:09;101925.31;;;25.34;32.24
51603;BME280;37954;51.980;5.850;2023-04-30T12:13:22;101922.22;;;25.41;32.22
51603;BME280;37954;51.980;5.850;2023-04-30T12:17:33;101935.34;;;25.25;32.08
51603;BME280;37954;51.980;5.850;2023-04-30T12:21:47;101922.13;;;24.74;32.71
51603;BME280;37954;51.980;5.850;2023-04-30T12:25:59;101920.16;;;24.46;32.94
51603;BME280;37954;51.980;5.850;2023-04-30T12:30:11;101920.63;;;24.24;33.40
51603;BME280;37954;51.980;5.850;2023-04-30T12:34:25;101913.44;;;23.84;33.87
51603;BME280;37954;51.980;5.850;2023-04-30T12:38:41;101910.03;;;23.43;34.68
51603;BME280;37954;51.980;5.850;2023-04-30T12:43:07;101905.22;;;23.19;35.00
51603;BME280;37954;51.980;5.850;2023-04-30T12:47:19;101897.22;;;23.23;35.07
51603;BME280;37954;51.980;5.850;2023-04-30T12:51:34;101888.84;;;22.84;34.84
51603;BME280;37954;51.980;5.850;2023-04-30T12:56:09;101903.09;;;22.61;35.36
51603;BME280;37954;51.980;5.850;2023-04-30T13:00:21;101893.22;;;22.34;35.43
51603;BME280;37954;51.980;5.850;2023-04-30T13:04:33;101886.94;;;22.23;35.32
51603;BME280;37954;51.980;5.850;2023-04-30T13:08:46;101882.00;;;22.10;35.70
51603;BME280;37954;51.980;5.850;2023-04-30T13:13:10;101869.97;;;22.06;35.83
51603;BME280;37954;51.980;5.850;2023-04-30T13:17:22;101868.28;;;21.95;35.91
51603;BME280;37954;51.980;5.850;2023-04-30T13:21:34;101852.38;;;21.72;35.73
51603;BME280;37954;51.980;5.850;2023-04-30T13:25:46;101864.94;;;21.63;35.65
51603;BME280;37954;51.980;5.850;2023-04-30T13:29:59;101863.44;;;21.25;35.75
51603;BME280;37954;51.980;5.850;2023-04-30T13:34:11;101841.19;;;21.06;36.47
51603;BME280;37954;51.980;5.850;2023-04-30T13:38:23;101854.69;;;21.23;36.90
51603;BME280;37954;51.980;5.850;2023-04-30T13:42:36;101845.44;;;21.29;36.89
51603;BME280;37954;51.980;5.850;2023-04-30T13:46:49;101835.59;;;21.28;36.72
51603;BME280;37954;51.980;5.850;2023-04-30T13:51:01;101836.97;;;21.40;36.92
51603;BME280;37954;51.980;5.850;2023-04-30T13:55:13;101830.97;;;21.38;36.78
51603;BME280;37954;51.980;5.850;2023-04-30T13:59:24;101837.81;;;21.51;37.48
51603;BME280;37954;51.980;5.850;2023-04-30T14:03:36;101820.59;;;21.45;37.82
51603;BME280;37954;51.980;5.850;2023-04-30T14:07:48;101842.22;;;21.57;37.95
51603;BME280;37954;51.980;5.850;2023-04-30T14:12:00;101816.50;;;21.43;37.60
51603;BME280;37954;51.980;5.850;2023-04-30T14:16:12;101822.50;;;21.40;37.47
51603;BME280;37954;51.980;5.850;2023-04-30T14:20:24;101807.97;;;21.34;37.71
51603;BME280;37954;51.980;5.850;2023-04-30T14:24:36;101795.66;;;21.22;37.99
51603;BME280;37954;51.980;5.850;2023-04-30T14:28:47;101807.72;;;21.36;38.43
51603;BME280;37954;51.980;5.850;2023-04-30T14:32:59;101802.19;;;21.21;37.50
51603;BME280;37954;51.980;5.850;2023-04-30T14:37:11;101804.97;;;21.26;37.92
51603;BME280;37954;51.980;5.850;2023-04-30T14:41:23;101805.38;;;21.02;37.54
51603;BME280;37954;51.980;5.850;2023-04-30T14:45:34;101814.31;;;20.88;38.00
51603;BME280;37954;51.980;5.850;2023-04-30T14:49:50;101806.09;;;20.77;38.25
51603;BME280;37954;51.980;5.850;2023-04-30T14:54:04;101777.88;;;20.67;38.71
51603;BME280;37954;51.980;5.850;2023-04-30T14:58:16;101775.69;;;20.64;38.96
51603;BME280;37954;51.980;5.850;2023-04-30T15:02:27;101773.97;;;20.47;37.79
51603;BME280;37954;51.980;5.850;2023-04-30T15:06:39;101782.66;;;20.44;37.87
51603;BME280;37954;51.980;5.850;2023-04-30T15:10:51;101783.47;;;20.40;37.91
51603;BME280;37954;51.980;5.850;2023-04-30T15:15:03;101766.47;;;20.33;38.22
51603;BME280;37954;51.980;5.850;2023-04-30T15:19:15;101763.56;;;20.39;38.69
51603;BME280;37954;51.980;5.850;2023-04-30T15:23:26;101773.28;;;20.30;39.26
51603;BME280;37954;51.980;5.850;2023-04-30T15:27:38;101767.81;;;20.25;39.21
51603;BME280;37954;51.980;5.850;2023-04-30T15:31:51;101764.53;;;20.28;39.22
51603;BME280;37954;51.980;5.850;2023-04-30T15:36:04;101755.41;;;20.07;38.81
51603;BME280;37954;51.980;5.850;2023-04-30T15:40:16;101747.47;;;20.06;39.12
51603;BME280;37954;51.980;5.850;2023-04-30T15:44:28;101748.25;;;20.01;38.69
51603;BME280;37954;51.980;5.850;2023-04-30T15:48:40;101750.66;;;19.98;38.50
51603;BME280;37954;51.980;5.850;2023-04-30T15:52:51;101740.88;;;20.02;38.63
51603;BME280;37954;51.980;5.850;2023-04-30T15:57:03;101739.81;;;20.03;39.19
51603;BME280;37954;51.980;5.850;2023-04-30T16:01:15;101712.16;;;19.89;39.41
51603;BME280;37954;51.980;5.850;2023-04-30T16:05:27;101727.75;;;19.99;39.40
51603;BME280;37954;51.980;5.850;2023-04-30T16:09:40;101715.28;;;20.08;39.52
51603;BME280;37954;51.980;5.850;2023-04-30T16:13:58;101725.91;;;20.04;39.12
51603;BME280;37954;51.980;5.850;2023-04-30T16:18:10;101726.31;;;19.86;39.15
51603;BME280;37954;51.980;5.850;2023-04-30T16:22:21;101720.63;;;19.56;39.36
51603;BME280;37954;51.980;5.850;2023-04-30T16:26:35;101720.94;;;19.37;39.99
51603;BME280;37954;51.980;5.850;2023-04-30T16:30:47;101706.56;;;19.15;40.38
51603;BME280;37954;51.980;5.850;2023-04-30T16:34:58;101700.78;;;19.11;40.63
51603;BME280;37954;51.980;5.850;2023-04-30T16:39:10;101690.88;;;19.00;40.66
51603;BME280;37954;51.980;5.850;2023-04-30T16:43:21;101682.81;;;18.89;40.99
51603;BME280;37954;51.980;5.850;2023-04-30T16:47:33;101697.34;;;18.94;41.19
51603;BME280;37954;51.980;5.850;2023-04-30T16:51:45;101692.97;;;18.93;41.43
51603;BME280;37954;51.980;5.850;2023-04-30T16:55:57;101682.78;;;18.84;41.47
51603;BME280;37954;51.980;5.850;2023-04-30T17:00:09;101672.59;;;18.74;41.22
51603;BME280;37954;51.980;5.850;2023-04-30T17:04:21;101678.53;;;18.71;41.37
51603;BME280;37954;51.980;5.850;2023-04-30T17:08:33;101689.31;;;18.61;41.52
51603;BME280;37954;51.980;5.850;2023-04-30T17:12:45;101683.97;;;18.49;41.52
51603;BME280;37954;51.980;5.850;2023-04-30T17:16:56;101658.22;;;18.35;41.84
51603;BME280;37954;51.980;5.850;2023-04-30T17:21:08;101670.44;;;18.32;42.38
51603;BME280;37954;51.980;5.850;2023-04-30T17:25:21;101676.69;;;18.33;42.59
51603;BME280;37954;51.980;5.850;2023-04-30T17:29:34;101674.06;;;18.21;42.77
51603;BME280;37954;51.980;5.850;2023-04-30T17:33:47;101666.94;;;18.15;42.84
51603;BME280;37954;51.980;5.850;2023-04-30T17:37:59;101661.75;;;18.14;42.98
51603;BME280;37954;51.980;5.850;2023-04-30T17:42:11;101675.91;;;18.16;43.22
51603;BME280;37954;51.980;5.850;2023-04-30T17:46:23;101664.00;;;18.00;43.08
51603;BME280;37954;51.980;5.850;2023-04-30T17:50:35;101635.13;;;17.77;42.99
51603;BME280;37954;51.980;5.850;2023-04-30T17:54:47;101659.13;;;17.85;43.13
51603;BME280;37954;51.980;5.850;2023-04-30T17:58:59;101672.81;;;17.90;43.44
51603;BME280;37954;51.980;5.850;2023-04-30T18:03:11;101669.13;;;17.80;43.51
51603;BME280;37954;51.980;5.850;2023-04-30T18:07:23;101641.59;;;17.59;43.86
51603;BME280;37954;51.980;5.850;2023-04-30T18:11:35;101651.41;;;17.60;44.23
51603;BME280;37954;51.980;5.850;2023-04-30T18:15:47;101649.16;;;17.57;44.68
51603;BME280;37954;51.980;5.850;2023-04-30T18:19:59;101637.47;;;17.40;44.97
51603;BME280;37954;51.980;5.850;2023-04-30T18:24:12;101652.97;;;17.39;44.97
51603;BME280;37954;51.980;5.850;2023-04-30T18:28:23;101648.66;;;17.27;45.14
51603;BME280;37954;51.980;5.850;2023-04-30T18:32:35;101645.28;;;17.20;45.01
51603;BME280;37954;51.980;5.850;2023-04-30T18:36:48;101647.66;;;17.16;45.14
51603;BME280;37954;51.980;5.850;2023-04-30T18:41:00;101636.88;;;17.04;45.59
51603;BME280;37954;51.980;5.850;2023-04-30T18:45:12;101634.06;;;16.99;45.58
51603;BME280;37954;51.980;5.850;2023-04-30T18:49:25;101631.75;;;16.91;45.99
51603;BME280;37954;51.980;5.850;2023-04-30T18:53:37;101630.47;;;16.82;46.47
51603;BME280;37954;51.980;5.850;2023-04-30T18:57:49;101631.00;;;16.67;46.62
51603;BME280;37954;51.980;5.850;2023-04-30T19:02:01;101624.19;;;16.53;46.77
51603;BME280;37954;51.980;5.850;2023-04-30T19:06:12;101627.84;;;16.47;47.15
51603;BME280;37954;51.980;5.850;2023-04-30T19:10:24;101637.22;;;16.40;47.31
51603;BME280;37954;51.980;5.850;2023-04-30T19:14:36;101625.00;;;16.25;47.54
51603;BME280;37954;51.980;5.850;2023-04-30T19:18:48;101626.16;;;16.18;47.86
51603;BME280;37954;51.980;5.850;2023-04-30T19:23:04;101630.31;;;16.09;48.07
51603;BME280;37954;51.980;5.850;2023-04-30T19:27:17;101640.22;;;16.03;48.56
51603;BME280;37954;51.980;5.850;2023-04-30T19:31:29;101635.38;;;15.93;48.60
51603;BME280;37954;51.980;5.850;2023-04-30T19:35:41;101652.97;;;15.91;49.08
51603;BME280;37954;51.980;5.850;2023-04-30T19:39:52;101633.28;;;15.72;49.28
51603;BME280;37954;51.980;5.850;2023-04-30T19:44:04;101644.00;;;15.67;49.41
51603;BME280;37954;51.980;5.850;2023-04-30T19:48:18;101636.69;;;15.56;49.57
51603;BME280;37954;51.980;5.850;2023-04-30T19:52:39;101632.88;;;15.45;49.75
51603;BME280;37954;51.980;5.850;2023-04-30T19:57:34;101635.22;;;15.42;49.97
51603;BME280;37954;51.980;5.850;2023-04-30T20:01:46;101626.75;;;15.38;50.22
51603;BME280;37954;51.980;5.850;2023-04-30T20:05:59;101622.25;;;15.32;50.49
51603;BME280;37954;51.980;5.850;2023-04-30T20:10:19;101619.66;;;15.25;50.60
51603;BME280;37954;51.980;5.850;2023-04-30T20:14:31;101619.53;;;15.20;50.97
51603;BME280;37954;51.980;5.850;2023-04-30T20:18:43;101614.69;;;15.11;51.20
51603;BME280;37954;51.980;5.850;2023-04-30T20:22:55;101628.56;;;15.14;51.20
51603;BME280;37954;51.980;5.850;2023-04-30T20:27:06;101616.91;;;15.02;51.61
51603;BME280;37954;51.980;5.850;2023-04-30T20:31:18;101597.09;;;14.90;51.61
51603;BME280;37954;51.980;5.850;2023-04-30T20:35:30;101607.44;;;14.93;51.54
51603;BME280;37954;51.980;5.850;2023-04-30T20:39:42;101612.97;;;14.86;51.80
51603;BME280;37954;51.980;5.850;2023-04-30T20:43:54;101610.50;;;14.85;52.08
51603;BME280;37954;51.980;5.850;2023-04-30T20:48:07;101608.63;;;14.85;51.68
51603;BME280;37954;51.980;5.850;2023-04-30T20:52:19;101611.19;;;14.80;52.06
51603;BME280;37954;51.980;5.850;2023-04-30T20:56:31;101589.38;;;14.63;52.09
51603;BME280;37954;51.980;5.850;2023-04-30T21:00:43;101609.03;;;14.71;51.98
51603;BME280;37954;51.980;5.850;2023-04-30T21:04:55;101600.63;;;14.60;52.59
51603;BME280;37954;51.980;5.850;2023-04-30T21:09:08;101597.44;;;14.52;52.72
51603;BME280;37954;51.980;5.850;2023-04-30T21:13:21;101600.75;;;14.54;52.54
51603;BME280;37954;51.980;5.850;2023-04-30T21:17:32;101591.28;;;14.45;52.72
51603;BME280;37954;51.980;5.850;2023-04-30T21:21:44;101595.84;;;14.44;53.23
51603;BME280;37954;51.980;5.850;2023-04-30T21:25:56;101576.25;;;14.31;53.36
51603;BME280;37954;51.980;5.850;2023-04-30T21:30:10;101551.72;;;14.14;53.82
51603;BME280;37954;51.980;5.850;2023-04-30T21:34:29;101575.00;;;14.15;53.41
51603;BME280;37954;51.980;5.850;2023-04-30T21:38:41;101587.22;;;14.17;53.98
51603;BME280;37954;51.980;5.850;2023-04-30T21:42:52;101569.28;;;14.05;53.71
51603;BME280;37954;51.980;5.850;2023-04-30T21:47:05;101565.03;;;13.97;54.04
51603;BME280;37954;51.980;5.850;2023-04-30T21:51:18;101573.72;;;13.99;54.20
51603;BME280;37954;51.980;5.850;2023-04-30T21:55:30;101567.13;;;13.95;54.33
51603;BME280;37954;51.980;5.850;2023-04-30T21:59:41;101565.53;;;13.87;54.58
51603;BME280;37954;51.980;5.850;2023-04-30T22:03:55;101555.88;;;13.80;54.93
51603;BME280;37954;51.980;5.850;2023-04-30T22:08:07;101554.44;;;13.77;54.95
51603;BME280;37954;51.980;5.850;2023-04-30T22:12:19;101557.97;;;13.78;55.30
51603;BME280;37954;51.980;5.850;2023-04-30T22:16:31;101563.81;;;13.75;55.25
51603;BME280;37954;51.980;5.850;2023-04-30T22:20:44;101547.91;;;13.67;55.39
51603;BME280;37954;51.980;5.850;2023-04-30T22:24:56;101554.97;;;13.68;55.59
51603;BME280;37954;51.980;5.850;2023-04-30T22:29:07;101528.16;;;13.48;55.96
51603;BME280;37954;51.980;5.850;2023-04-30T22:33:19;101549.66;;;13.54;55.79
51603;BME280;37954;51.980;5.850;2023-04-30T22:37:32;101555.16;;;13.48;55.97
51603;BME280;37954;51.980;5.850;2023-04-30T22:41:45;101534.88;;;13.39;56.18